createdAt,value
2016-03-10T00:00:31.419Z,0
2016-03-10T00:01:31.423Z,0
2016-03-10T00:02:31.441Z,0
2016-03-10T00:03:31.490Z,0
2016-03-10T00:04:31.477Z,0
2016-03-10T00:05:31.511Z,0
2016-03-10T00:06:31.504Z,0
2016-03-10T00:07:31.539Z,0
2016-03-10T00:08:31.556Z,0
2016-03-10T00:09:31.575Z,0
2016-03-10T00:10:31.609Z,0
2016-03-10T00:11:31.595Z,0
2016-03-10T00:12:31.677Z,0
2016-03-10T00:13:31.632Z,0
2016-03-10T00:14:31.666Z,0
2016-03-10T00:15:31.685Z,0
2016-03-10T00:16:31.531Z,0
2016-03-10T00:17:31.705Z,0
2016-03-10T00:18:31.725Z,0
2016-03-10T00:19:31.727Z,0
2016-03-10T00:20:31.761Z,0
2016-03-10T00:21:31.763Z,0
2016-03-10T00:22:31.782Z,0
2016-03-10T00:23:31.799Z,0
2016-03-10T00:24:31.819Z,0
2016-03-10T00:25:31.837Z,0
2016-03-10T00:26:31.855Z,0
2016-03-10T00:27:31.920Z,0
2016-03-10T00:28:31.891Z,0
2016-03-10T00:29:31.894Z,0
2016-03-10T00:30:31.865Z,0
2016-03-10T00:31:31.780Z,0
2016-03-10T00:32:31.959Z,0
2016-03-10T00:33:31.962Z,0
2016-03-10T00:34:31.980Z,0
2016-03-10T00:35:32.014Z,0
2016-03-10T00:36:32.017Z,0
2016-03-10T00:37:32.051Z,0
2016-03-10T00:38:32.044Z,0
2016-03-10T00:39:32.078Z,0
2016-03-10T00:40:32.112Z,0
2016-03-10T00:41:32.098Z,0
2016-03-10T00:42:32.165Z,0
2016-03-10T00:43:32.120Z,0
2016-03-10T00:44:32.154Z,0
2016-03-10T00:45:32.204Z,0
2016-03-10T00:46:32.191Z,0
2016-03-10T00:47:32.209Z,0
2016-03-10T00:48:32.212Z,0
2016-03-10T00:49:32.245Z,0
2016-03-10T00:50:32.280Z,0
2016-03-10T00:51:32.267Z,0
2016-03-10T00:52:32.301Z,0
2016-03-10T00:53:32.304Z,0
2016-03-10T00:54:32.337Z,0
2016-03-10T00:55:32.371Z,0
2016-03-10T00:56:32.342Z,0
2016-03-10T00:57:32.392Z,0
2016-03-10T00:58:32.379Z,0
2016-03-10T00:59:32.414Z,0
2016-03-10T01:00:32.432Z,0
2016-03-10T01:01:32.450Z,0
2016-03-10T01:02:32.483Z,0
2016-03-10T01:03:32.518Z,0
2016-03-10T01:04:32.488Z,0
2016-03-10T01:05:32.524Z,0
2016-03-10T01:06:32.510Z,0
2016-03-10T01:07:32.591Z,0
2016-03-10T01:08:32.578Z,0
2016-03-10T01:09:32.565Z,0
2016-03-10T01:10:32.599Z,0
2016-03-10T01:11:32.602Z,0
2016-03-10T01:12:32.635Z,0
2016-03-10T01:13:32.654Z,0
2016-03-10T01:14:32.657Z,0
2016-03-10T01:15:32.675Z,0
2016-03-10T01:16:32.678Z,0
2016-03-10T01:17:32.695Z,0
2016-03-10T01:18:32.730Z,0
2016-03-10T01:19:32.733Z,0
2016-03-10T01:20:32.767Z,0
2016-03-10T01:21:32.769Z,0
2016-03-10T01:22:32.787Z,0
2016-03-10T01:23:32.805Z,0
2016-03-10T01:24:32.825Z,0
2016-03-10T01:25:32.842Z,0
2016-03-10T01:26:32.861Z,0
2016-03-10T01:27:32.895Z,0
2016-03-10T01:28:32.898Z,0
2016-03-10T01:29:32.916Z,0
2016-03-10T01:30:32.919Z,0
2016-03-10T01:31:32.952Z,0
2016-03-10T01:32:32.955Z,0
2016-03-10T01:33:32.974Z,0
2016-03-10T01:34:33.008Z,0
2016-03-10T01:35:32.994Z,0
2016-03-10T01:36:33.028Z,0
2016-03-10T01:37:33.031Z,0
2016-03-10T01:38:33.096Z,0
2016-03-10T01:39:33.068Z,0
2016-03-10T01:40:33.085Z,0
2016-03-10T01:41:33.121Z,0
2016-03-10T01:42:33.138Z,0
2016-03-10T01:43:33.141Z,0
2016-03-10T01:44:33.143Z,0
2016-03-10T01:45:33.178Z,0
2016-03-10T01:46:33.211Z,0
2016-03-10T01:47:33.215Z,0
2016-03-10T01:48:33.248Z,0
2016-03-10T01:49:33.235Z,0
2016-03-10T01:50:33.269Z,0
2016-03-10T01:51:33.287Z,0
2016-03-10T01:52:33.290Z,0
2016-03-10T01:53:33.309Z,0
2016-03-10T01:54:33.311Z,0
2016-03-10T01:55:33.345Z,0
2016-03-10T01:56:33.395Z,0
2016-03-10T01:57:33.381Z,0
2016-03-10T01:58:33.384Z,0
2016-03-10T01:59:33.433Z,0
2016-03-10T02:00:33.421Z,0
2016-03-10T02:01:33.299Z,0
2016-03-10T02:02:33.457Z,0
2016-03-10T02:03:33.476Z,0
2016-03-10T02:04:33.510Z,0
2016-03-10T02:05:33.512Z,0
2016-03-10T02:06:33.531Z,0
2016-03-10T02:07:33.377Z,0
2016-03-10T02:08:33.552Z,0
2016-03-10T02:09:33.586Z,0
2016-03-10T02:10:33.589Z,0
2016-03-10T02:11:33.669Z,0
2016-03-10T02:12:33.626Z,0
2016-03-10T02:13:33.659Z,0
2016-03-10T02:14:33.662Z,0
2016-03-10T02:15:33.680Z,0
2016-03-10T02:16:33.698Z,0
2016-03-10T02:17:33.701Z,0
2016-03-10T02:18:33.750Z,0
2016-03-10T02:19:33.737Z,0
2016-03-10T02:20:33.772Z,0
2016-03-10T02:21:33.790Z,0
2016-03-10T02:22:33.808Z,0
2016-03-10T02:23:33.796Z,0
2016-03-10T02:24:33.829Z,0
2016-03-10T02:25:33.879Z,0
2016-03-10T02:26:33.881Z,0
2016-03-10T02:27:33.884Z,0
2016-03-10T02:28:33.886Z,0
2016-03-10T02:29:33.922Z,0
2016-03-10T02:30:33.924Z,0
2016-03-10T02:31:33.942Z,0
2016-03-10T02:32:34.007Z,0
2016-03-10T02:33:33.978Z,0
2016-03-10T02:34:34.060Z,0
2016-03-10T02:35:33.999Z,0
2016-03-10T02:36:34.049Z,0
2016-03-10T02:37:34.036Z,0
2016-03-10T02:38:34.055Z,0
2016-03-10T02:39:34.088Z,0
2016-03-10T02:40:34.091Z,0
2016-03-10T02:41:34.124Z,0
2016-03-10T02:42:34.127Z,0
2016-03-10T02:43:34.146Z,0
2016-03-10T02:44:34.196Z,0
2016-03-10T02:45:34.167Z,0
2016-03-10T02:46:34.201Z,0
2016-03-10T02:47:34.203Z,0
2016-03-10T02:48:34.223Z,0
2016-03-10T02:49:34.256Z,0
2016-03-10T02:50:34.243Z,0
2016-03-10T02:51:34.292Z,0
2016-03-10T02:52:34.280Z,0
2016-03-10T02:53:34.376Z,0
2016-03-10T02:54:34.332Z,0
2016-03-10T02:55:34.381Z,0
2016-03-10T02:56:34.369Z,0
2016-03-10T02:57:34.372Z,0
2016-03-10T02:58:34.390Z,0
2016-03-10T02:59:34.423Z,0
2016-03-10T03:00:34.410Z,0
2016-03-10T03:01:34.444Z,0
2016-03-10T03:02:34.463Z,0
2016-03-10T03:03:34.481Z,0
2016-03-10T03:04:34.483Z,0
2016-03-10T03:05:34.518Z,0
2016-03-10T03:06:34.552Z,0
2016-03-10T03:07:34.539Z,0
2016-03-10T03:08:34.557Z,0
2016-03-10T03:09:34.575Z,0
2016-03-10T03:10:34.609Z,0
2016-03-10T03:11:34.596Z,0
2016-03-10T03:12:34.693Z,0
2016-03-10T03:13:34.633Z,0
2016-03-10T03:14:34.651Z,0
2016-03-10T03:15:34.670Z,0
2016-03-10T03:16:34.704Z,0
2016-03-10T03:17:34.722Z,0
2016-03-10T03:18:34.709Z,0
2016-03-10T03:19:34.743Z,0
2016-03-10T03:20:34.762Z,0
2016-03-10T03:21:34.749Z,0
2016-03-10T03:22:34.814Z,0
2016-03-10T03:23:34.801Z,0
2016-03-10T03:24:34.834Z,0
2016-03-10T03:25:34.837Z,0
2016-03-10T03:26:34.856Z,0
2016-03-10T03:27:34.890Z,0
2016-03-10T03:28:34.876Z,0
2016-03-10T03:29:34.894Z,0
2016-03-10T03:30:34.928Z,0
2016-03-10T03:31:34.931Z,0
2016-03-10T03:32:34.966Z,0
2016-03-10T03:33:34.968Z,0
2016-03-10T03:34:34.986Z,0
2016-03-10T03:35:35.020Z,0
2016-03-10T03:36:35.055Z,0
2016-03-10T03:37:35.135Z,0
2016-03-10T03:38:35.059Z,0
2016-03-10T03:39:35.077Z,0
2016-03-10T03:40:35.080Z,0
2016-03-10T03:41:35.115Z,0
2016-03-10T03:42:35.117Z,0
2016-03-10T03:43:35.120Z,0
2016-03-10T03:44:35.168Z,0
2016-03-10T03:45:35.156Z,0
2016-03-10T03:46:35.174Z,0
2016-03-10T03:47:35.177Z,0
2016-03-10T03:48:35.211Z,0
2016-03-10T03:49:35.230Z,0
2016-03-10T03:50:35.232Z,0
2016-03-10T03:51:35.298Z,0
2016-03-10T03:52:35.269Z,0
2016-03-10T03:53:35.287Z,0
2016-03-10T03:54:35.306Z,0
2016-03-10T03:55:35.324Z,0
2016-03-10T03:56:35.326Z,0
2016-03-10T03:57:35.361Z,0
2016-03-10T03:58:35.378Z,0
2016-03-10T03:59:35.381Z,0
2016-03-10T04:00:35.400Z,0
2016-03-10T04:01:35.497Z,0
2016-03-10T04:02:35.452Z,0
2016-03-10T04:03:35.455Z,0
2016-03-10T04:04:35.473Z,0
2016-03-10T04:05:35.492Z,0
2016-03-10T04:06:35.541Z,0
2016-03-10T04:07:35.513Z,0
2016-03-10T04:08:35.546Z,0
2016-03-10T04:09:35.549Z,0
2016-03-10T04:10:35.568Z,0
2016-03-10T04:11:35.601Z,0
2016-03-10T04:12:35.604Z,0
2016-03-10T04:13:35.637Z,0
2016-03-10T04:14:35.625Z,0
2016-03-10T04:15:35.659Z,0
2016-03-10T04:16:35.677Z,0
2016-03-10T04:17:35.679Z,0
2016-03-10T04:18:35.699Z,0
2016-03-10T04:19:35.717Z,0
2016-03-10T04:20:35.735Z,0
2016-03-10T04:21:35.769Z,0
2016-03-10T04:22:35.772Z,0
2016-03-10T04:23:35.821Z,0
2016-03-10T04:24:35.793Z,0
2016-03-10T04:25:35.812Z,0
2016-03-10T04:26:35.829Z,0
2016-03-10T04:27:35.847Z,0
2016-03-10T04:28:35.850Z,0
2016-03-10T04:29:35.884Z,0
2016-03-10T04:30:35.918Z,0
2016-03-10T04:31:35.920Z,0
2016-03-10T04:32:35.923Z,0
2016-03-10T04:33:35.973Z,0
2016-03-10T04:34:35.961Z,0
2016-03-10T04:35:35.994Z,0
2016-03-10T04:36:35.996Z,0
2016-03-10T04:37:36.015Z,0
2016-03-10T04:38:36.018Z,0
2016-03-10T04:39:36.067Z,0
2016-03-10T04:40:36.054Z,0
2016-03-10T04:41:36.072Z,0
2016-03-10T04:42:36.106Z,0
2016-03-10T04:43:36.109Z,0
2016-03-10T04:44:36.127Z,0
2016-03-10T04:45:36.162Z,0
2016-03-10T04:46:36.164Z,0
2016-03-10T04:47:36.182Z,0
2016-03-10T04:48:36.201Z,0
2016-03-10T04:49:36.235Z,0
2016-03-10T04:50:36.237Z,0
2016-03-10T04:51:36.240Z,0
2016-03-10T04:52:36.305Z,0
2016-03-10T04:53:36.121Z,0
2016-03-10T04:54:36.311Z,0
2016-03-10T04:55:36.298Z,0
2016-03-10T04:56:36.316Z,0
2016-03-10T04:57:36.334Z,0
2016-03-10T04:58:36.352Z,0
2016-03-10T04:59:36.387Z,0
2016-03-10T05:00:36.405Z,0
2016-03-10T05:01:36.408Z,0
2016-03-10T05:02:36.457Z,0
2016-03-10T05:03:36.428Z,0
2016-03-10T05:04:36.478Z,0
2016-03-10T05:05:36.465Z,0
2016-03-10T05:06:36.499Z,0
2016-03-10T05:07:36.502Z,0
2016-03-10T05:08:36.520Z,0
2016-03-10T05:09:36.569Z,0
2016-03-10T05:10:36.541Z,0
2016-03-10T05:11:36.575Z,0
2016-03-10T05:12:36.578Z,0
2016-03-10T05:13:36.597Z,0
2016-03-10T05:14:36.630Z,0
2016-03-10T05:15:36.649Z,0
2016-03-10T05:16:36.635Z,0
2016-03-10T05:17:36.685Z,0
2016-03-10T05:18:36.672Z,0
2016-03-10T05:19:36.690Z,0
2016-03-10T05:20:36.709Z,0
2016-03-10T05:21:36.727Z,0
2016-03-10T05:22:36.761Z,0
2016-03-10T05:23:36.764Z,4
2016-03-10T05:24:36.782Z,4
2016-03-10T05:25:36.784Z,0
2016-03-10T05:26:36.803Z,0
2016-03-10T05:27:36.853Z,0
2016-03-10T05:28:36.840Z,4
2016-03-10T05:29:36.873Z,4
2016-03-10T05:30:36.876Z,4
2016-03-10T05:31:36.895Z,4
2016-03-10T05:32:36.959Z,4
2016-03-10T05:33:36.916Z,4
2016-03-10T05:34:36.964Z,4
2016-03-10T05:35:36.796Z,8
2016-03-10T05:36:36.986Z,8
2016-03-10T05:37:36.988Z,4
2016-03-10T05:38:37.007Z,8
2016-03-10T05:39:37.057Z,8
2016-03-10T05:40:37.043Z,12
2016-03-10T05:41:37.062Z,12
2016-03-10T05:42:37.065Z,8
2016-03-10T05:43:37.099Z,12
2016-03-10T05:44:37.117Z,12
2016-03-10T05:45:37.119Z,12
2016-03-10T05:46:37.138Z,16
2016-03-10T05:47:37.172Z,16
2016-03-10T05:48:37.160Z,16
2016-03-10T05:49:37.209Z,20
2016-03-10T05:50:37.196Z,20
2016-03-10T05:51:37.215Z,20
2016-03-10T05:52:37.263Z,20
2016-03-10T05:53:37.251Z,24
2016-03-10T05:54:37.268Z,24
2016-03-10T05:55:37.271Z,28
2016-03-10T05:56:37.149Z,28
2016-03-10T05:57:37.339Z,28
2016-03-10T05:58:37.326Z,28
2016-03-10T05:59:37.345Z,32
2016-03-10T06:00:37.363Z,36
2016-03-10T06:01:37.381Z,36
2016-03-10T06:02:37.399Z,32
2016-03-10T06:03:37.417Z,36
2016-03-10T06:04:37.420Z,40
2016-03-10T06:05:37.439Z,40
2016-03-10T06:06:37.456Z,44
2016-03-10T06:07:37.489Z,40
2016-03-10T06:08:37.508Z,36
2016-03-10T06:09:37.526Z,40
2016-03-10T06:10:37.529Z,40
2016-03-10T06:11:37.547Z,40
2016-03-10T06:12:37.564Z,40
2016-03-10T06:13:37.411Z,40
2016-03-10T06:14:37.586Z,44
2016-03-10T06:15:37.605Z,44
2016-03-10T06:16:37.622Z,48
2016-03-10T06:17:37.641Z,56
2016-03-10T06:18:37.660Z,60
2016-03-10T06:19:37.678Z,60
2016-03-10T06:20:37.696Z,60
2016-03-10T06:21:37.699Z,60
2016-03-10T06:22:37.732Z,64
2016-03-10T06:23:37.751Z,68
2016-03-10T06:24:37.785Z,68
2016-03-10T06:25:37.788Z,72
2016-03-10T06:26:37.790Z,72
2016-03-10T06:27:37.793Z,72
2016-03-10T06:28:37.857Z,72
2016-03-10T06:29:37.860Z,68
2016-03-10T06:30:37.098Z,76
2016-03-10T06:31:37.898Z,80
2016-03-10T06:32:37.884Z,80
2016-03-10T06:33:37.904Z,80
2016-03-10T06:34:37.921Z,84
2016-03-10T06:35:37.940Z,84
2016-03-10T06:36:37.973Z,88
2016-03-10T06:37:37.961Z,96
2016-03-10T06:38:37.978Z,96
2016-03-10T06:39:37.982Z,100
2016-03-10T06:40:38.015Z,92
2016-03-10T06:41:38.065Z,96
2016-03-10T06:42:38.036Z,108
2016-03-10T06:43:38.055Z,112
2016-03-10T06:44:38.073Z,108
2016-03-10T06:45:38.123Z,112
2016-03-10T06:46:38.110Z,104
2016-03-10T06:47:38.144Z,112
2016-03-10T06:48:38.162Z,116
2016-03-10T06:49:38.165Z,120
2016-03-10T06:50:38.199Z,120
2016-03-10T06:51:38.185Z,132
2016-03-10T06:52:38.205Z,136
2016-03-10T06:53:38.222Z,128
2016-03-10T06:54:38.241Z,124
2016-03-10T06:55:38.290Z,128
2016-03-10T06:56:38.277Z,128
2016-03-10T06:57:38.295Z,128
2016-03-10T06:58:38.330Z,124
2016-03-10T06:59:38.316Z,128
2016-03-10T07:00:38.679Z,132
2016-03-10T07:01:38.572Z,140
2016-03-10T07:02:38.388Z,132
2016-03-10T07:03:38.468Z,136
2016-03-10T07:04:38.721Z,144
2016-03-10T07:05:38.786Z,148
2016-03-10T07:06:38.726Z,148
2016-03-10T07:07:38.729Z,160
2016-03-10T07:08:38.810Z,164
2016-03-10T07:09:38.703Z,156
2016-03-10T07:10:38.861Z,160
2016-03-10T07:11:38.895Z,168
2016-03-10T07:12:38.898Z,164
2016-03-10T07:13:39.042Z,156
2016-03-10T07:14:38.919Z,148
2016-03-10T07:15:38.907Z,148
2016-03-10T07:16:38.956Z,156
2016-03-10T07:17:39.053Z,176
2016-03-10T07:18:39.008Z,184
2016-03-10T07:19:39.011Z,184
2016-03-10T07:20:39.060Z,180
2016-03-10T07:21:39.033Z,200
2016-03-10T07:22:39.082Z,192
2016-03-10T07:23:39.085Z,188
2016-03-10T07:24:39.133Z,200
2016-03-10T07:25:39.105Z,184
2016-03-10T07:26:39.108Z,188
2016-03-10T07:27:39.110Z,196
2016-03-10T07:28:39.129Z,200
2016-03-10T07:29:39.163Z,204
2016-03-10T07:30:39.150Z,212
2016-03-10T07:31:39.199Z,224
2016-03-10T07:32:39.234Z,216
2016-03-10T07:33:39.236Z,204
2016-03-10T07:34:39.146Z,208
2016-03-10T07:35:39.304Z,224
2016-03-10T07:36:39.276Z,212
2016-03-10T07:37:39.325Z,224
2016-03-10T07:38:39.359Z,224
2016-03-10T07:39:39.393Z,240
2016-03-10T07:40:39.364Z,256
2016-03-10T07:41:39.445Z,240
2016-03-10T07:42:39.417Z,260
2016-03-10T07:43:39.404Z,268
2016-03-10T07:44:39.422Z,244
2016-03-10T07:45:39.456Z,256
2016-03-10T07:46:39.365Z,260
2016-03-10T07:47:39.519Z,272
2016-03-10T07:48:39.482Z,272
2016-03-10T07:49:39.417Z,288
2016-03-10T07:50:39.507Z,288
2016-03-10T07:51:39.488Z,300
2016-03-10T07:52:39.471Z,292
2016-03-10T07:53:39.379Z,312
2016-03-10T07:54:39.457Z,316
2016-03-10T07:55:39.566Z,320
2016-03-10T07:56:39.364Z,304
2016-03-10T07:57:39.459Z,324
2016-03-10T07:58:39.384Z,332
2016-03-10T07:59:39.416Z,344
2016-03-10T08:00:39.527Z,340
2016-03-10T08:01:39.654Z,344
2016-03-10T08:02:39.625Z,372
2016-03-10T08:03:39.706Z,360
2016-03-10T08:04:39.771Z,396
2016-03-10T08:05:39.726Z,360
2016-03-10T08:06:39.744Z,356
2016-03-10T08:07:39.746Z,360
2016-03-10T08:08:39.780Z,356
2016-03-10T08:09:39.736Z,364
2016-03-10T08:10:39.864Z,388
2016-03-10T08:11:39.820Z,384
2016-03-10T08:12:39.822Z,416
2016-03-10T08:13:39.872Z,384
2016-03-10T08:14:39.905Z,392
2016-03-10T08:15:39.846Z,416
2016-03-10T08:16:39.848Z,420
2016-03-10T08:17:39.992Z,400
2016-03-10T08:18:39.964Z,388
2016-03-10T08:19:39.966Z,384
2016-03-10T08:20:39.969Z,420
2016-03-10T08:21:39.830Z,460
2016-03-10T08:22:40.037Z,476
2016-03-10T08:23:40.024Z,480
2016-03-10T08:24:40.042Z,460
2016-03-10T08:25:39.247Z,440
2016-03-10T08:26:40.032Z,456
2016-03-10T08:27:40.097Z,492
2016-03-10T08:28:39.912Z,520
2016-03-10T08:29:40.149Z,628
2016-03-10T08:30:40.136Z,576
2016-03-10T08:31:39.827Z,560
2016-03-10T08:32:40.173Z,608
2016-03-10T08:33:40.176Z,560
2016-03-10T08:34:40.210Z,540
2016-03-10T08:35:40.212Z,628
2016-03-10T08:36:40.199Z,656
2016-03-10T08:37:40.264Z,612
2016-03-10T08:38:40.283Z,608
2016-03-10T08:39:40.285Z,544
2016-03-10T08:40:40.304Z,552
2016-03-10T08:41:40.260Z,604
2016-03-10T08:42:40.309Z,652
2016-03-10T08:43:40.312Z,636
2016-03-10T08:44:40.378Z,640
2016-03-10T08:45:40.349Z,544
2016-03-10T08:46:40.148Z,516
2016-03-10T08:47:40.353Z,540
2016-03-10T08:48:40.450Z,616
2016-03-10T08:49:40.437Z,692
2016-03-10T08:50:40.486Z,596
2016-03-10T08:51:40.458Z,608
2016-03-10T08:52:40.524Z,576
2016-03-10T08:53:40.480Z,572
2016-03-10T08:54:40.342Z,592
2016-03-10T08:55:40.547Z,568
2016-03-10T08:56:40.535Z,524
2016-03-10T08:57:40.522Z,516
2016-03-10T08:58:40.571Z,624
2016-03-10T08:59:40.573Z,628
2016-03-10T09:00:40.591Z,608
2016-03-10T09:01:40.641Z,712
2016-03-10T09:02:40.691Z,732
2016-03-10T09:03:40.693Z,656
2016-03-10T09:04:40.713Z,660
2016-03-10T09:05:40.730Z,676
2016-03-10T09:06:40.714Z,656
2016-03-10T09:07:40.700Z,680
2016-03-10T09:08:40.781Z,628
2016-03-10T09:09:40.753Z,584
2016-03-10T09:10:40.771Z,620
2016-03-10T09:11:40.821Z,544
2016-03-10T09:12:40.855Z,572
2016-03-10T09:13:40.733Z,604
2016-03-10T09:14:40.766Z,568
2016-03-10T09:15:40.815Z,548
2016-03-10T09:16:40.882Z,580
2016-03-10T09:17:40.930Z,604
2016-03-10T09:18:40.965Z,600
2016-03-10T09:19:40.935Z,584
2016-03-10T09:20:41.017Z,620
2016-03-10T09:21:41.004Z,660
2016-03-10T09:22:40.990Z,684
2016-03-10T09:23:40.979Z,728
2016-03-10T09:24:41.028Z,792
2016-03-10T09:25:41.061Z,720
2016-03-10T09:26:41.079Z,804
2016-03-10T09:27:41.020Z,868
2016-03-10T09:28:41.085Z,948
2016-03-10T09:29:41.120Z,884
2016-03-10T09:30:41.154Z,984
2016-03-10T09:31:41.156Z,968
2016-03-10T09:32:41.189Z,856
2016-03-10T09:33:41.255Z,976
2016-03-10T09:34:41.195Z,1184
2016-03-10T09:35:41.228Z,1028
2016-03-10T09:36:41.231Z,992
2016-03-10T09:37:41.266Z,884
2016-03-10T09:38:41.284Z,832
2016-03-10T09:39:41.271Z,776
2016-03-10T09:40:41.306Z,836
2016-03-10T09:41:41.355Z,852
2016-03-10T09:42:41.358Z,940
2016-03-10T09:43:41.297Z,900
2016-03-10T09:44:41.378Z,896
2016-03-10T09:45:41.381Z,864
2016-03-10T09:46:41.258Z,728
2016-03-10T09:47:41.418Z,816
2016-03-10T09:48:41.514Z,908
2016-03-10T09:49:41.423Z,1028
2016-03-10T09:50:41.446Z,1180
2016-03-10T09:51:42.059Z,1216
2016-03-10T09:52:41.515Z,1360
2016-03-10T09:53:41.470Z,1256
2016-03-10T09:54:41.519Z,1020
2016-03-10T09:55:41.570Z,1136
2016-03-10T09:56:41.603Z,1216
2016-03-10T09:57:41.590Z,1236
2016-03-10T09:58:41.593Z,1072
2016-03-10T09:59:41.627Z,1248
2016-03-10T10:00:41.676Z,1216
2016-03-10T10:01:41.741Z,1004
2016-03-10T10:02:41.635Z,1312
2016-03-10T10:03:41.716Z,1012
2016-03-10T10:04:41.687Z,1044
2016-03-10T10:05:41.721Z,964
2016-03-10T10:06:41.692Z,1016
2016-03-10T10:07:41.820Z,1088
2016-03-10T10:08:41.791Z,1152
2016-03-10T10:09:41.810Z,1164
2016-03-10T10:10:41.797Z,1024
2016-03-10T10:11:41.846Z,1116
2016-03-10T10:12:41.818Z,992
2016-03-10T10:13:41.836Z,800
2016-03-10T10:14:41.948Z,760
2016-03-10T10:15:41.873Z,840
2016-03-10T10:16:41.828Z,908
2016-03-10T10:17:41.832Z,872
2016-03-10T10:18:41.865Z,940
2016-03-10T10:19:41.915Z,972
2016-03-10T10:20:41.933Z,900
2016-03-10T10:21:41.935Z,744
2016-03-10T10:22:42.001Z,728
2016-03-10T10:23:42.395Z,804
2016-03-10T10:24:42.101Z,756
2016-03-10T10:25:41.775Z,796
2016-03-10T10:26:41.730Z,880
2016-03-10T10:27:41.764Z,920
2016-03-10T10:28:41.767Z,868
2016-03-10T10:29:41.786Z,824
2016-03-10T10:30:41.804Z,712
2016-03-10T10:31:41.837Z,700
2016-03-10T10:32:41.856Z,704
2016-03-10T10:33:41.859Z,852
2016-03-10T10:34:41.877Z,1044
2016-03-10T10:35:41.895Z,948
2016-03-10T10:36:41.914Z,784
2016-03-10T10:37:41.932Z,600
2016-03-10T10:38:41.981Z,620
2016-03-10T10:39:41.953Z,804
2016-03-10T10:40:41.986Z,640
2016-03-10T10:41:41.989Z,864
2016-03-10T10:42:42.008Z,836
2016-03-10T10:43:42.057Z,648
2016-03-10T10:44:42.044Z,616
2016-03-10T10:45:42.063Z,648
2016-03-10T10:46:42.081Z,620
2016-03-10T10:47:42.100Z,556
2016-03-10T10:48:42.118Z,528
2016-03-10T10:49:42.136Z,604
2016-03-10T10:50:42.154Z,612
2016-03-10T10:51:42.173Z,552
2016-03-10T10:52:42.191Z,512
2016-03-10T10:53:42.225Z,628
2016-03-10T10:54:42.243Z,572
2016-03-10T10:55:42.262Z,592
2016-03-10T10:56:42.265Z,564
2016-03-10T10:57:42.282Z,568
2016-03-10T10:58:42.301Z,628
2016-03-10T10:59:42.319Z,468
2016-03-10T11:00:42.337Z,580
2016-03-10T11:01:42.356Z,576
2016-03-10T11:02:42.375Z,696
2016-03-10T11:03:42.393Z,580
2016-03-10T11:04:42.426Z,520
2016-03-10T11:05:42.429Z,488
2016-03-10T11:06:42.447Z,520
2016-03-10T11:07:42.450Z,596
2016-03-10T11:08:42.468Z,612
2016-03-10T11:09:42.519Z,600
2016-03-10T11:10:42.521Z,596
2016-03-10T11:11:42.538Z,592
2016-03-10T11:12:42.697Z,740
2016-03-10T11:13:42.560Z,920
2016-03-10T11:14:42.578Z,832
2016-03-10T11:15:42.597Z,1088
2016-03-10T11:16:42.615Z,1084
2016-03-10T11:17:42.633Z,1204
2016-03-10T11:18:42.699Z,1132
2016-03-10T11:19:42.670Z,1028
2016-03-10T11:20:42.688Z,876
2016-03-10T11:21:42.690Z,908
2016-03-10T11:22:42.740Z,1068
2016-03-10T11:23:42.759Z,988
2016-03-10T11:24:42.777Z,796
2016-03-10T11:25:42.779Z,732
2016-03-10T11:26:42.798Z,884
2016-03-10T11:27:42.817Z,784
2016-03-10T11:28:42.835Z,808
2016-03-10T11:29:42.853Z,860
2016-03-10T11:30:42.887Z,864
2016-03-10T11:31:42.906Z,696
2016-03-10T11:32:42.923Z,600
2016-03-10T11:33:42.926Z,592
2016-03-10T11:34:42.945Z,612
2016-03-10T11:35:42.978Z,780
2016-03-10T11:36:42.981Z,704
2016-03-10T11:37:43.000Z,604
2016-03-10T11:38:43.018Z,744
2016-03-10T11:39:43.036Z,672
2016-03-10T11:40:43.055Z,752
2016-03-10T11:41:43.057Z,820
2016-03-10T11:42:43.091Z,996
2016-03-10T11:43:43.094Z,864
2016-03-10T11:44:43.112Z,828
2016-03-10T11:45:43.161Z,748
2016-03-10T11:46:43.180Z,708
2016-03-10T11:47:43.182Z,576
2016-03-10T11:48:43.201Z,544
2016-03-10T11:49:43.219Z,512
2016-03-10T11:50:43.222Z,420
2016-03-10T11:51:43.240Z,436
2016-03-10T11:52:43.259Z,420
2016-03-10T11:53:43.277Z,452
2016-03-10T11:54:43.296Z,456
2016-03-10T11:55:43.313Z,444
2016-03-10T11:56:43.316Z,448
2016-03-10T11:57:43.351Z,448
2016-03-10T11:58:43.369Z,636
2016-03-10T11:59:43.387Z,908
2016-03-10T12:00:43.406Z,960
2016-03-10T12:01:43.424Z,932
2016-03-10T12:02:43.442Z,992
2016-03-10T12:03:43.460Z,988
2016-03-10T12:04:43.462Z,892
2016-03-10T12:05:43.513Z,720
2016-03-10T12:06:43.530Z,612
2016-03-10T12:07:43.550Z,552
2016-03-10T12:08:43.568Z,448
2016-03-10T12:09:43.569Z,424
2016-03-10T12:10:43.589Z,412
2016-03-10T12:11:43.435Z,520
2016-03-10T12:12:43.608Z,588
2016-03-10T12:13:43.643Z,532
2016-03-10T12:14:43.646Z,608
2016-03-10T12:15:43.696Z,540
2016-03-10T12:16:43.682Z,476
2016-03-10T12:17:43.717Z,656
2016-03-10T12:18:43.719Z,612
2016-03-10T12:19:43.738Z,564
2016-03-10T12:20:43.788Z,656
2016-03-10T12:21:43.774Z,752
2016-03-10T12:22:43.824Z,720
2016-03-10T12:23:43.811Z,696
2016-03-10T12:24:43.845Z,592
2016-03-10T12:25:43.848Z,556
2016-03-10T12:26:43.866Z,508
2016-03-10T12:27:43.884Z,532
2016-03-10T12:28:44.059Z,472
2016-03-10T12:29:43.905Z,436
2016-03-10T12:30:43.940Z,420
2016-03-10T12:31:43.989Z,384
2016-03-10T12:32:43.976Z,372
2016-03-10T12:33:44.041Z,368
2016-03-10T12:34:44.012Z,448
2016-03-10T12:35:44.031Z,548
2016-03-10T12:36:44.049Z,500
2016-03-10T12:37:44.051Z,520
2016-03-10T12:38:44.117Z,480
2016-03-10T12:39:44.104Z,488
2016-03-10T12:40:44.139Z,616
2016-03-10T12:41:44.141Z,660
2016-03-10T12:42:44.159Z,600
2016-03-10T12:43:44.193Z,468
2016-03-10T12:44:44.180Z,440
2016-03-10T12:45:44.214Z,396
2016-03-10T12:46:44.217Z,364
2016-03-10T12:47:44.235Z,348
2016-03-10T12:48:44.269Z,340
2016-03-10T12:49:44.287Z,352
2016-03-10T12:50:44.305Z,332
2016-03-10T12:51:44.308Z,332
2016-03-10T12:52:44.358Z,376
2016-03-10T12:53:44.345Z,360
2016-03-10T12:54:44.379Z,340
2016-03-10T12:55:44.382Z,408
2016-03-10T12:56:44.415Z,576
2016-03-10T12:57:44.434Z,688
2016-03-10T12:58:44.436Z,896
2016-03-10T12:59:44.501Z,872
2016-03-10T13:00:44.473Z,972
2016-03-10T13:01:44.523Z,932
2016-03-10T13:02:44.510Z,920
2016-03-10T13:03:44.544Z,900
2016-03-10T13:04:44.562Z,760
2016-03-10T13:05:44.565Z,616
2016-03-10T13:06:44.614Z,636
2016-03-10T13:07:44.601Z,560
2016-03-10T13:08:44.620Z,416
2016-03-10T13:09:44.638Z,396
2016-03-10T13:10:44.656Z,436
2016-03-10T13:11:44.690Z,488
2016-03-10T13:12:44.692Z,640
2016-03-10T13:13:44.733Z,800
2016-03-10T13:14:44.768Z,684
2016-03-10T13:15:44.786Z,520
2016-03-10T13:16:44.774Z,412
2016-03-10T13:17:44.791Z,396
2016-03-10T13:18:44.810Z,404
2016-03-10T13:19:44.844Z,344
2016-03-10T13:20:44.862Z,404
2016-03-10T13:21:44.880Z,360
2016-03-10T13:22:44.883Z,340
2016-03-10T13:23:44.917Z,412
2016-03-10T13:24:44.920Z,416
2016-03-10T13:25:44.937Z,408
2016-03-10T13:26:44.972Z,440
2016-03-10T13:27:44.959Z,424
2016-03-10T13:28:45.024Z,432
2016-03-10T13:29:45.026Z,388
2016-03-10T13:30:45.028Z,376
2016-03-10T13:31:45.031Z,360
2016-03-10T13:32:45.066Z,352
2016-03-10T13:33:45.069Z,396
2016-03-10T13:34:45.102Z,396
2016-03-10T13:35:45.105Z,404
2016-03-10T13:36:45.124Z,368
2016-03-10T13:37:45.157Z,340
2016-03-10T13:38:45.160Z,320
2016-03-10T13:39:45.194Z,344
2016-03-10T13:40:45.197Z,372
2016-03-10T13:41:45.231Z,372
2016-03-10T13:42:45.234Z,428
2016-03-10T13:43:45.283Z,440
2016-03-10T13:44:45.286Z,416
2016-03-10T13:45:45.289Z,392
2016-03-10T13:46:45.338Z,360
2016-03-10T13:47:45.153Z,284
2016-03-10T13:48:45.343Z,248
2016-03-10T13:49:45.362Z,240
2016-03-10T13:50:45.395Z,184
2016-03-10T13:51:45.399Z,256
2016-03-10T13:52:45.416Z,340
2016-03-10T13:53:45.466Z,392
2016-03-10T13:54:45.454Z,432
2016-03-10T13:55:45.487Z,456
2016-03-10T13:56:45.506Z,416
2016-03-10T13:57:45.509Z,360
2016-03-10T13:58:45.542Z,368
2016-03-10T13:59:45.545Z,404
2016-03-10T14:00:45.578Z,396
2016-03-10T14:01:45.581Z,416
2016-03-10T14:02:45.600Z,440
2016-03-10T14:03:45.634Z,412
2016-03-10T14:04:45.637Z,372
2016-03-10T14:05:45.655Z,472
2016-03-10T14:06:45.685Z,476
2016-03-10T14:07:45.532Z,484
2016-03-10T14:08:45.722Z,472
2016-03-10T14:09:45.724Z,460
2016-03-10T14:10:45.743Z,392